createdAt,value
2018-02-27T00:01:48.944Z,-5.65
2018-02-27T00:04:16.323Z,-5.78
2018-02-27T00:06:43.791Z,-5.85
2018-02-27T00:09:11.169Z,-5.92
2018-02-27T00:11:38.564Z,-5.95
2018-02-27T00:14:05.975Z,-5.96
2018-02-27T00:16:33.370Z,-5.85
2018-02-27T00:19:00.756Z,-5.81
2018-02-27T00:21:28.243Z,-5.76
2018-02-27T00:23:55.698Z,-5.82
2018-02-27T00:26:23.149Z,-5.88
2018-02-27T00:28:50.622Z,-5.72
2018-02-27T00:31:18.015Z,-5.74
2018-02-27T00:33:45.407Z,-5.75
2018-02-27T00:36:12.822Z,-5.85
2018-02-27T00:38:40.214Z,-5.88
2018-02-27T00:41:07.602Z,-5.93
2018-02-27T00:43:34.990Z,-6.09
2018-02-27T00:46:02.384Z,-6.31
2018-02-27T00:48:29.768Z,-6.21
2018-02-27T00:50:57.160Z,-6.26
2018-02-27T00:53:24.547Z,-6.32
2018-02-27T00:55:51.938Z,-6.16
2018-02-27T00:58:19.322Z,-6.27
2018-02-27T01:00:46.732Z,-6.19
2018-02-27T01:03:14.114Z,-6.32
2018-02-27T01:05:41.518Z,-6.38
2018-02-27T01:08:08.979Z,-6.27
2018-02-27T01:10:36.370Z,-6.23
2018-02-27T01:13:03.758Z,-6.28
2018-02-27T01:15:31.151Z,-6.27
2018-02-27T01:17:58.543Z,-6.26
2018-02-27T01:20:25.938Z,-6.43
2018-02-27T01:22:53.327Z,-6.58
2018-02-27T01:25:20.710Z,-6.75
2018-02-27T01:27:48.120Z,-6.67
2018-02-27T01:30:15.506Z,-6.60
2018-02-27T01:32:42.914Z,-6.68
2018-02-27T01:35:10.291Z,-6.69
2018-02-27T01:37:37.686Z,-6.61
2018-02-27T01:40:05.074Z,-6.71
2018-02-27T01:42:32.463Z,-6.74
2018-02-27T01:44:59.890Z,-6.64
2018-02-27T01:47:27.332Z,-6.79
2018-02-27T01:49:54.806Z,-6.90
2018-02-27T01:52:22.198Z,-6.89
2018-02-27T01:54:49.587Z,-6.86
2018-02-27T01:57:16.981Z,-6.75
2018-02-27T01:59:44.370Z,-6.65
2018-02-27T02:02:11.764Z,-6.35
2018-02-27T02:04:39.179Z,-6.26
2018-02-27T02:07:06.570Z,-6.15
2018-02-27T02:09:33.958Z,-6.11
2018-02-27T02:12:01.351Z,-6.19
2018-02-27T02:14:28.736Z,-6.17
2018-02-27T02:16:56.132Z,-6.12
2018-02-27T02:19:23.523Z,-6.23
2018-02-27T02:21:50.977Z,-6.09
2018-02-27T02:24:18.430Z,-6.06
2018-02-27T02:26:45.824Z,-5.90
2018-02-27T02:29:13.242Z,-5.81
2018-02-27T02:31:40.644Z,-5.92
2018-02-27T02:34:08.032Z,-5.79
2018-02-27T02:36:35.507Z,-5.72
2018-02-27T02:39:02.894Z,-5.77
2018-02-27T02:41:30.288Z,-5.74
2018-02-27T02:43:57.767Z,-5.76
2018-02-27T02:46:25.170Z,-5.88
2018-02-27T02:48:52.550Z,-6.29
2018-02-27T02:51:19.938Z,-6.51
2018-02-27T02:53:47.488Z,-6.54
2018-02-27T02:56:14.864Z,-6.36
2018-02-27T02:58:42.254Z,-6.64
2018-02-27T03:01:09.754Z,-6.87
2018-02-27T03:03:37.293Z,-6.97
2018-02-27T03:06:04.777Z,-6.61
2018-02-27T03:08:32.162Z,-6.51
2018-02-27T03:10:59.550Z,-6.51
2018-02-27T03:13:26.946Z,-6.56
2018-02-27T03:15:54.390Z,-6.32
2018-02-27T03:18:21.859Z,-6.23
2018-02-27T03:20:49.267Z,-6.24
2018-02-27T03:23:16.649Z,-6.21
2018-02-27T03:25:44.039Z,-6.33
2018-02-27T03:28:11.742Z,-6.35
2018-02-27T03:30:39.138Z,-6.45
2018-02-27T03:33:06.526Z,-6.39
2018-02-27T03:35:33.916Z,-6.58
2018-02-27T03:38:01.408Z,-6.74
2018-02-27T03:40:28.820Z,-6.57
2018-02-27T03:42:56.212Z,-6.34
2018-02-27T03:45:23.593Z,-6.38
2018-02-27T03:47:50.981Z,-6.37
2018-02-27T03:50:18.363Z,-6.24
2018-02-27T03:52:45.754Z,-6.11
2018-02-27T03:55:13.143Z,-6.06
2018-02-27T03:57:40.535Z,-6.03
2018-02-27T04:00:08.016Z,-6.08
2018-02-27T04:02:35.403Z,-5.83
2018-02-27T04:05:02.811Z,-5.68
2018-02-27T04:07:30.218Z,-5.59
2018-02-27T04:09:57.605Z,-5.48
2018-02-27T04:12:24.991Z,-5.44
2018-02-27T04:14:52.381Z,-5.51
2018-02-27T04:17:19.786Z,-5.45
2018-02-27T04:19:47.186Z,-5.42
2018-02-27T04:22:14.608Z,-5.39
2018-02-27T04:24:41.979Z,-5.39
2018-02-27T04:27:09.394Z,-5.39
2018-02-27T04:29:36.798Z,-5.40
2018-02-27T04:32:04.211Z,-5.53
2018-02-27T04:34:31.598Z,-5.58
2018-02-27T04:36:58.994Z,-5.57
2018-02-27T04:39:26.391Z,-5.53
2018-02-27T04:41:53.799Z,-5.49
2018-02-27T04:44:21.186Z,-5.46
2018-02-27T04:46:48.753Z,-5.48
2018-02-27T04:49:16.136Z,-5.59
2018-02-27T04:51:43.528Z,-5.53
2018-02-27T04:54:10.916Z,-5.65
2018-02-27T04:56:38.309Z,-5.70
2018-02-27T04:59:05.702Z,-5.74
2018-02-27T05:01:33.094Z,-6.08
2018-02-27T05:04:00.511Z,-6.33
2018-02-27T05:06:27.922Z,-6.09
2018-02-27T05:08:55.322Z,-5.96
2018-02-27T05:11:22.794Z,-6.06
2018-02-27T05:13:50.206Z,-6.49
2018-02-27T05:16:17.604Z,-6.69
2018-02-27T05:18:45.008Z,-6.75
2018-02-27T05:21:12.405Z,-6.60
2018-02-27T05:23:39.795Z,-6.84
2018-02-27T05:26:07.183Z,-6.90
2018-02-27T05:28:34.577Z,-6.87
2018-02-27T05:31:01.977Z,-6.86
2018-02-27T05:33:29.366Z,-6.86
2018-02-27T05:35:56.761Z,-6.70
2018-02-27T05:38:24.194Z,-6.95
2018-02-27T05:40:51.584Z,-6.76
2018-02-27T05:43:18.975Z,-6.59
2018-02-27T05:45:46.369Z,-6.37
2018-02-27T05:48:13.765Z,-6.32
2018-02-27T05:50:41.160Z,-6.13
2018-02-27T05:53:08.557Z,-6.15
2018-02-27T05:55:35.947Z,-6.23
2018-02-27T05:58:03.402Z,-5.99
2018-02-27T06:00:30.798Z,-5.75
2018-02-27T06:02:58.192Z,-5.57
2018-02-27T06:05:25.581Z,-5.42
2018-02-27T06:07:52.978Z,-5.30
2018-02-27T06:10:20.365Z,-5.31
2018-02-27T06:12:47.780Z,-5.21
2018-02-27T06:15:15.146Z,-5.24
2018-02-27T06:17:42.544Z,-5.36
2018-02-27T06:20:09.930Z,-5.18
2018-02-27T06:22:37.335Z,-5.13
2018-02-27T06:25:04.718Z,-5.32
2018-02-27T06:27:32.179Z,-5.32
2018-02-27T06:29:59.572Z,-5.29
2018-02-27T06:32:27.000Z,-5.22
2018-02-27T06:34:54.443Z,-5.09
2018-02-27T06:37:21.868Z,-5.15
2018-02-27T06:39:49.254Z,-5.06
2018-02-27T06:42:16.707Z,-5.06
2018-02-27T06:44:44.110Z,-4.93
2018-02-27T06:47:11.527Z,-4.86
2018-02-27T06:49:38.923Z,-4.64
2018-02-27T06:52:06.314Z,-4.45
2018-02-27T06:54:33.714Z,-4.33
2018-02-27T06:57:01.102Z,-4.23
2018-02-27T06:59:28.506Z,-4.42
2018-02-27T07:01:55.906Z,-4.16
2018-02-27T07:04:23.295Z,-4.11
2018-02-27T07:06:50.778Z,-3.88
2018-02-27T07:09:18.186Z,-3.59
2018-02-27T07:11:45.591Z,-3.50
2018-02-27T07:14:12.974Z,-3.05
2018-02-27T07:16:40.366Z,-3.23
2018-02-27T07:19:07.814Z,-3.31
2018-02-27T07:21:35.206Z,-3.49
2018-02-27T07:24:02.604Z,-2.91
2018-02-27T07:26:29.991Z,-2.14
2018-02-27T07:28:57.384Z,-0.89
2018-02-27T07:31:24.778Z,-0.16
2018-02-27T07:33:52.257Z,0.19
2018-02-27T07:36:19.651Z,1.06
2018-02-27T07:38:47.050Z,0.46
2018-02-27T07:41:14.441Z,0.49
2018-02-27T07:43:41.847Z,0.27
2018-02-27T07:46:09.234Z,0.31
2018-02-27T07:48:36.638Z,0.27
2018-02-27T07:51:04.023Z,-0.13
2018-02-27T07:53:31.497Z,-0.80
2018-02-27T07:55:58.886Z,-1.79
2018-02-27T07:58:26.309Z,-2.38
2018-02-27T08:00:53.768Z,-2.34
2018-02-27T08:03:21.185Z,-1.82
2018-02-27T08:05:48.571Z,-1.58
2018-02-27T08:08:16.031Z,-1.61
2018-02-27T08:10:43.427Z,-1.38
2018-02-27T08:13:10.836Z,-1.36
2018-02-27T08:15:38.218Z,-0.34
2018-02-27T08:18:05.614Z,0.68
2018-02-27T08:20:32.994Z,1.85
2018-02-27T08:23:00.390Z,2.59
2018-02-27T08:25:27.805Z,2.89
2018-02-27T08:27:55.266Z,2.79
2018-02-27T08:30:22.666Z,2.48
2018-02-27T08:32:50.047Z,2.67
2018-02-27T08:35:17.479Z,2.44
2018-02-27T08:37:44.858Z,2.94
2018-02-27T08:40:12.346Z,3.14
2018-02-27T08:42:39.727Z,3.65
2018-02-27T08:45:07.137Z,3.10
2018-02-27T08:47:34.517Z,2.20
2018-02-27T08:50:01.912Z,2.23
2018-02-27T08:52:29.290Z,1.58
2018-02-27T08:54:56.770Z,1.91
2018-02-27T08:57:24.743Z,1.21
2018-02-27T08:59:52.206Z,0.20
2018-02-27T09:02:19.595Z,0.00
2018-02-27T09:04:46.981Z,-0.24
2018-02-27T09:07:14.462Z,-0.41
2018-02-27T09:09:41.850Z,-0.47
2018-02-27T09:12:09.258Z,0.15
2018-02-27T09:14:36.650Z,0.55
2018-02-27T09:17:04.030Z,0.91
2018-02-27T09:19:31.437Z,1.67
2018-02-27T09:21:58.817Z,2.34
2018-02-27T09:24:26.261Z,2.55
2018-02-27T09:26:53.706Z,2.59
2018-02-27T09:29:21.094Z,1.77
2018-02-27T09:31:48.479Z,0.97
2018-02-27T09:34:15.863Z,0.12
2018-02-27T09:36:43.246Z,-0.43
2018-02-27T09:39:10.650Z,-0.53
2018-02-27T09:41:38.038Z,-0.93
2018-02-27T09:44:05.434Z,-1.43
2018-02-27T09:46:32.964Z,-1.50
2018-02-27T09:49:00.342Z,-1.36
2018-02-27T09:51:27.721Z,-1.32
2018-02-27T09:53:55.110Z,-1.16
2018-02-27T09:56:22.526Z,-1.07
2018-02-27T09:58:49.926Z,-0.99
2018-02-27T10:01:17.325Z,-1.69
2018-02-27T10:03:44.697Z,-1.93
2018-02-27T10:06:12.099Z,-2.11
2018-02-27T10:08:39.488Z,-2.22
2018-02-27T10:11:06.927Z,-2.19
2018-02-27T10:13:34.363Z,-2.31
2018-02-27T10:16:01.806Z,-2.34
2018-02-27T10:18:29.268Z,-2.27
2018-02-27T10:20:56.672Z,-2.16
2018-02-27T10:23:24.079Z,-2.10
2018-02-27T10:25:51.480Z,-2.00
2018-02-27T10:28:18.863Z,-1.91
2018-02-27T10:30:46.353Z,-2.11
2018-02-27T10:33:13.731Z,-2.09
2018-02-27T10:35:41.122Z,-2.27
2018-02-27T10:38:08.521Z,-2.30
2018-02-27T10:40:36.007Z,-2.10
2018-02-27T10:43:03.386Z,-2.06
2018-02-27T10:45:30.786Z,-1.87
2018-02-27T10:47:58.171Z,-1.67
2018-02-27T10:50:25.574Z,-1.66
2018-02-27T10:52:52.980Z,-1.50
2018-02-27T10:55:20.414Z,-1.34
2018-02-27T10:57:47.794Z,-1.10
2018-02-27T11:00:21.851Z,-0.48
2018-02-27T11:02:49.319Z,-0.37
2018-02-27T11:05:16.707Z,0.03
2018-02-27T11:07:44.105Z,0.31
2018-02-27T11:10:11.490Z,-0.09
2018-02-27T11:12:38.882Z,-0.22
2018-02-27T11:15:06.378Z,-0.29
2018-02-27T11:17:33.847Z,-0.39
2018-02-27T11:20:01.239Z,-0.26
2018-02-27T11:22:28.631Z,-0.35
2018-02-27T11:24:56.014Z,-0.23
2018-02-27T11:27:23.411Z,-0.44
2018-02-27T11:29:50.836Z,-1.01
2018-02-27T11:32:18.225Z,-1.45
2018-02-27T11:34:45.635Z,-1.70
2018-02-27T11:37:13.029Z,-1.73
2018-02-27T11:39:40.414Z,-1.75
2018-02-27T11:42:07.827Z,-1.62
2018-02-27T11:44:35.215Z,-1.63
2018-02-27T11:47:02.607Z,-1.45
2018-02-27T11:49:29.992Z,-1.28
2018-02-27T11:51:57.417Z,-1.13
2018-02-27T11:54:24.818Z,-1.01
2018-02-27T11:56:52.326Z,-0.91
2018-02-27T11:59:19.714Z,-0.95
2018-02-27T12:01:47.100Z,-1.20
2018-02-27T12:04:14.597Z,-1.05
2018-02-27T12:06:41.979Z,-1.22
2018-02-27T12:09:09.406Z,-0.96
2018-02-27T12:11:36.790Z,-0.55
2018-02-27T12:14:04.177Z,-0.41
2018-02-27T12:16:31.571Z,-0.34
2018-02-27T12:18:58.954Z,-0.48
2018-02-27T12:21:26.347Z,-0.60
2018-02-27T12:23:53.730Z,-0.49
2018-02-27T12:26:21.191Z,-0.37
2018-02-27T12:28:48.582Z,-0.31
2018-02-27T12:31:15.965Z,-0.42
2018-02-27T12:33:43.355Z,-0.65
2018-02-27T12:36:10.750Z,-0.62
2018-02-27T12:38:38.131Z,-0.58
2018-02-27T12:41:05.523Z,-0.19
2018-02-27T12:43:32.901Z,-0.28
2018-02-27T12:46:00.294Z,-0.19
2018-02-27T12:48:27.787Z,-0.02
2018-02-27T12:50:55.175Z,0.53
2018-02-27T12:53:22.556Z,0.81
2018-02-27T12:55:49.938Z,1.20
2018-02-27T12:58:17.450Z,1.34
2018-02-27T13:00:44.794Z,1.39
2018-02-27T13:03:12.182Z,0.98
2018-02-27T13:05:39.575Z,0.11
2018-02-27T13:08:06.960Z,-0.80
2018-02-27T13:10:34.370Z,-1.09
2018-02-27T13:13:01.839Z,-0.83
2018-02-27T13:15:29.259Z,-0.27
2018-02-27T13:17:56.634Z,0.17
2018-02-27T13:20:24.026Z,0.26
2018-02-27T13:22:51.410Z,0.23
2018-02-27T13:25:18.795Z,0.07
2018-02-27T13:27:46.198Z,0.02
2018-02-27T13:30:13.592Z,0.12
2018-02-27T13:32:40.994Z,0.61
2018-02-27T13:35:08.366Z,0.13
2018-02-27T13:37:35.797Z,-0.68
2018-02-27T13:40:03.186Z,-0.90
2018-02-27T13:42:30.579Z,-1.21
2018-02-27T13:44:58.027Z,-1.29
2018-02-27T13:47:25.462Z,-1.46
2018-02-27T13:49:52.862Z,-1.48
2018-02-27T13:52:20.317Z,-1.60
2018-02-27T13:54:47.770Z,-1.75
2018-02-27T13:57:15.165Z,-1.79
2018-02-27T13:59:42.652Z,-1.61
2018-02-27T14:02:10.051Z,-1.21
2018-02-27T14:04:37.437Z,-0.79
2018-02-27T14:07:04.823Z,-0.86
2018-02-27T14:09:32.210Z,-0.83
2018-02-27T14:11:59.618Z,-0.78
2018-02-27T14:14:27.031Z,-0.51
2018-02-27T14:16:54.518Z,-0.36
2018-02-27T14:19:21.978Z,-0.60
2018-02-27T14:21:49.350Z,-0.84
2018-02-27T14:24:16.746Z,-0.50
2018-02-27T14:26:44.170Z,-0.55
2018-02-27T14:29:11.625Z,-0.48
2018-02-27T14:31:39.016Z,-0.90
2018-02-27T14:34:06.436Z,-0.93
2018-02-27T14:36:33.893Z,-0.80
2018-02-27T14:39:01.294Z,-0.53
2018-02-27T14:41:28.703Z,-0.91
2018-02-27T14:43:56.090Z,-1.09
2018-02-27T14:46:23.519Z,-1.24
2018-02-27T14:48:50.905Z,-1.22
2018-02-27T14:51:18.331Z,-1.19
2018-02-27T14:53:45.807Z,-0.95
2018-02-27T14:56:13.191Z,-0.81
2018-02-27T14:58:40.580Z,-0.67
2018-02-27T15:01:07.971Z,-0.58
2018-02-27T15:03:35.374Z,-0.43
2018-02-27T15:06:02.761Z,-0.64
2018-02-27T15:08:30.146Z,-0.97
2018-02-27T15:10:57.550Z,-1.00
2018-02-27T15:13:24.939Z,-1.61
2018-02-27T15:15:52.332Z,-1.78
2018-02-27T15:18:19.804Z,-1.86
2018-02-27T15:20:47.203Z,-1.87
2018-02-27T15:23:14.583Z,-2.05
2018-02-27T15:25:42.066Z,-1.99
2018-02-27T15:28:09.452Z,-1.97
2018-02-27T15:30:36.849Z,-1.97
2018-02-27T15:33:04.227Z,-1.89
2018-02-27T15:35:31.622Z,-1.99
2018-02-27T15:37:59.012Z,-1.77
2018-02-27T15:40:26.435Z,-1.86
2018-02-27T15:42:53.820Z,-1.80
2018-02-27T15:45:21.207Z,-2.04
2018-02-27T15:47:48.599Z,-2.23
2018-02-27T15:50:16.018Z,-2.14
2018-02-27T15:52:43.406Z,-2.13
2018-02-27T15:55:10.810Z,-2.10
2018-02-27T15:57:38.295Z,-2.15
2018-02-27T16:00:05.679Z,-2.14
2018-02-27T16:02:33.071Z,-2.30
2018-02-27T16:05:00.527Z,-2.41
2018-02-27T16:07:27.930Z,-2.53
2018-02-27T16:09:55.318Z,-2.51
2018-02-27T16:12:22.710Z,-2.57
2018-02-27T16:14:50.150Z,-2.59
2018-02-27T16:17:17.535Z,-2.48
2018-02-27T16:19:44.915Z,-2.56
2018-02-27T16:22:12.323Z,-2.61
2018-02-27T16:24:39.710Z,-2.71
2018-02-27T16:27:07.165Z,-2.89
2018-02-27T16:29:34.535Z,-2.92
2018-02-27T16:32:01.927Z,-2.89
2018-02-27T16:34:29.335Z,-2.94
2018-02-27T16:36:56.710Z,-3.05
2018-02-27T16:39:24.090Z,-3.12
2018-02-27T16:41:51.482Z,-3.16
2018-02-27T16:44:18.864Z,-3.19
2018-02-27T16:46:46.260Z,-3.42
2018-02-27T16:49:13.647Z,-3.44
2018-02-27T16:51:41.034Z,-3.57
2018-02-27T16:54:09.281Z,-3.63
2018-02-27T16:56:36.670Z,-3.73
2018-02-27T16:59:04.058Z,-3.66
2018-02-27T17:01:31.454Z,-3.66
2018-02-27T17:03:59.379Z,-3.53
2018-02-27T17:06:26.773Z,-3.46
2018-02-27T17:08:54.159Z,-3.46
2018-02-27T17:11:21.550Z,-3.47
2018-02-27T17:13:48.937Z,-3.34
2018-02-27T17:16:16.323Z,-3.38
2018-02-27T17:18:43.718Z,-3.50
2018-02-27T17:21:11.114Z,-3.47
2018-02-27T17:23:38.494Z,-3.35
2018-02-27T17:26:05.897Z,-3.25
2018-02-27T17:28:33.319Z,-3.12
2018-02-27T17:31:00.710Z,-3.27
2018-02-27T17:33:28.102Z,-3.19
2018-02-27T17:35:55.489Z,-3.39
2018-02-27T17:38:22.880Z,-3.31
2018-02-27T17:40:50.270Z,-3.30
2018-02-27T17:43:17.662Z,-3.20
2018-02-27T17:45:45.049Z,-3.14
2018-02-27T17:48:12.438Z,-3.29
2018-02-27T17:50:39.831Z,-3.38
2018-02-27T17:53:07.222Z,-3.49
2018-02-27T17:55:34.651Z,-3.56
2018-02-27T17:58:02.045Z,-3.69
2018-02-27T18:00:29.425Z,-3.69
2018-02-27T18:02:56.919Z,-3.66
2018-02-27T18:05:24.317Z,-3.71
2018-02-27T18:07:51.703Z,-3.77
2018-02-27T18:10:19.106Z,-3.79
2018-02-27T18:12:46.538Z,-4.01
2018-02-27T18:15:13.928Z,-4.07
2018-02-27T18:17:41.332Z,-4.16
2018-02-27T18:20:08.718Z,-4.23
2018-02-27T18:22:36.110Z,-4.24
2018-02-27T18:25:03.499Z,-4.36
2018-02-27T18:27:30.916Z,-4.24
2018-02-27T18:29:58.307Z,-4.31
2018-02-27T18:32:25.710Z,-4.34
2018-02-27T18:34:53.102Z,-4.34
2018-02-27T18:37:20.496Z,-4.39
2018-02-27T18:39:47.943Z,-4.35
2018-02-27T18:42:15.290Z,-4.38
2018-02-27T18:44:42.672Z,-4.28
2018-02-27T18:47:10.065Z,-4.33
2018-02-27T18:49:37.478Z,-4.48
2018-02-27T18:52:04.889Z,-4.65
2018-02-27T18:54:32.262Z,-4.65
2018-02-27T18:56:59.677Z,-4.71
2018-02-27T18:59:27.066Z,-4.88
2018-02-27T19:01:54.484Z,-4.96
2018-02-27T19:04:21.944Z,-4.95
2018-02-27T19:06:49.334Z,-5.03
2018-02-27T19:09:16.727Z,-4.96
2018-02-27T19:11:44.119Z,-5.02
2018-02-27T19:14:11.499Z,-5.12
2018-02-27T19:16:38.896Z,-5.09
2018-02-27T19:19:06.291Z,-5.14
2018-02-27T19:21:33.677Z,-5.27
2018-02-27T19:24:01.089Z,-5.28
2018-02-27T19:26:28.477Z,-5.32
2018-02-27T19:28:55.906Z,-5.35
2018-02-27T19:31:23.294Z,-5.23
2018-02-27T19:33:50.695Z,-5.17
2018-02-27T19:36:18.908Z,-5.20
2018-02-27T19:38:46.312Z,-5.30
2018-02-27T19:41:13.706Z,-5.29
2018-02-27T19:43:41.111Z,-5.29
2018-02-27T19:46:08.500Z,-5.36
2018-02-27T19:48:35.983Z,-5.34
2018-02-27T19:51:03.366Z,-5.43
2018-02-27T19:53:30.794Z,-5.37
2018-02-27T19:55:58.364Z,-5.40
2018-02-27T19:58:25.782Z,-5.45
2018-02-27T20:00:53.179Z,-5.44
2018-02-27T20:03:20.569Z,-5.55
2018-02-27T20:05:48.072Z,-5.61
2018-02-27T20:08:15.511Z,-5.65
2018-02-27T20:10:42.907Z,-5.73
2018-02-27T20:13:10.322Z,-5.71
2018-02-27T20:15:37.707Z,-5.75
2018-02-27T20:18:10.635Z,-5.80
2018-02-27T20:20:38.020Z,-5.76
2018-02-27T20:23:10.974Z,-5.72
2018-02-27T20:25:38.369Z,-5.75
2018-02-27T20:28:08.130Z,-5.69
2018-02-27T20:30:35.717Z,-5.67
2018-02-27T20:33:03.142Z,-5.70
2018-02-27T20:35:30.586Z,-5.63
2018-02-27T20:37:57.975Z,-5.70
2018-02-27T20:40:25.367Z,-5.69
2018-02-27T20:42:52.774Z,-5.73
2018-02-27T20:45:20.167Z,-5.75
2018-02-27T20:47:47.619Z,-5.76
2018-02-27T20:50:15.015Z,-5.76
2018-02-27T20:52:42.423Z,-5.73
2018-02-27T20:55:09.814Z,-5.70
2018-02-27T20:57:37.227Z,-5.71
2018-02-27T21:00:04.614Z,-5.71
2018-02-27T21:02:32.052Z,-5.68
2018-02-27T21:04:59.446Z,-5.68
2018-02-27T21:07:26.919Z,-5.75
2018-02-27T21:09:54.295Z,-5.76
2018-02-27T21:12:21.707Z,-5.70
2018-02-27T21:14:49.673Z,-5.66
2018-02-27T21:17:17.215Z,-5.62
2018-02-27T21:19:44.562Z,-5.63
2018-02-27T21:22:11.991Z,-5.69
2018-02-27T21:24:39.399Z,-5.69
2018-02-27T21:27:06.787Z,-5.70
2018-02-27T21:29:34.207Z,-5.70
2018-02-27T21:32:01.904Z,-5.77
2018-02-27T21:34:29.306Z,-5.73
2018-02-27T21:36:56.719Z,-5.80
2018-02-27T21:39:24.114Z,-5.78
2018-02-27T21:41:51.608Z,-5.83
2018-02-27T21:44:18.990Z,-5.80
2018-02-27T21:46:46.406Z,-5.72
2018-02-27T21:49:13.809Z,-5.60
2018-02-27T21:51:41.237Z,-5.65
2018-02-27T21:54:08.626Z,-5.60
2018-02-27T21:56:36.016Z,-5.55
2018-02-27T21:59:03.415Z,-5.62
2018-02-27T22:01:30.812Z,-5.67
2018-02-27T22:03:58.286Z,-5.74
2018-02-27T22:06:25.679Z,-5.73
2018-02-27T22:11:26.127Z,-5.79
2018-02-27T22:13:53.531Z,-5.89
2018-02-27T22:16:21.013Z,-5.94
2018-02-27T22:18:48.401Z,-5.88
2018-02-27T22:21:15.802Z,-5.79
2018-02-27T22:23:43.192Z,-5.90
2018-02-27T22:26:10.586Z,-5.93
2018-02-27T22:28:37.978Z,-5.99
2018-02-27T22:31:05.371Z,-5.91
2018-02-27T22:33:32.759Z,-5.86
2018-02-27T22:36:00.171Z,-5.91
2018-02-27T22:38:27.564Z,-5.96
2018-02-27T22:40:54.953Z,-5.99
2018-02-27T22:43:22.358Z,-6.05
2018-02-27T22:45:49.846Z,-6.16
2018-02-27T22:48:17.238Z,-6.17
2018-02-27T22:50:44.623Z,-6.21
2018-02-27T22:53:12.023Z,-6.28
2018-02-27T22:55:39.416Z,-6.46
2018-02-27T22:58:06.806Z,-6.50
2018-02-27T23:00:40.051Z,-6.57
2018-02-27T23:03:07.457Z,-6.52
2018-02-27T23:05:34.845Z,-6.59
2018-02-27T23:08:02.227Z,-6.61
2018-02-27T23:10:29.622Z,-6.52
2018-02-27T23:12:57.082Z,-6.50
2018-02-27T23:15:25.470Z,-6.51
2018-02-27T23:17:52.858Z,-6.49
2018-02-27T23:20:20.254Z,-6.58
2018-02-27T23:22:47.652Z,-6.60
2018-02-27T23:25:17.984Z,-6.65
2018-02-27T23:27:45.410Z,-6.69
2018-02-27T23:30:12.863Z,-6.57
2018-02-27T23:32:42.923Z,-6.51
2018-02-27T23:35:11.029Z,-6.64
2018-02-27T23:37:38.418Z,-6.72
2018-02-27T23:40:05.818Z,-6.84
2018-02-27T23:42:33.203Z,-6.86
2018-02-27T23:45:00.602Z,-6.79
2018-02-27T23:47:28.094Z,-6.87
2018-02-27T23:49:56.262Z,-6.99
2018-02-27T23:52:23.672Z,-6.96
2018-02-27T23:54:51.078Z,-6.98
2018-02-27T23:57:18.462Z,-7.10
2018-02-27T23:59:45.866Z,-7.24
